Time;durP1;ratioP1;P1;durP2;ratioP2;P2;SDS_P1;SDS_P2;PMS_P1;PMS_P2;Temp;Humidity;BMP_temperature;BMP_pressure;BME280_temperature;BME280_humidity;BME280_pressure;Samples;Min_cycle;Max_cycle;Signal;HPM_P1;HPM_P2
2023/12/23 00:00:33;;;;;;;2.08;1.00;;;2.50;63.60;;;;;;4936164;28;114307;-83
2023/12/23 00:03:01;;;;;;;2.55;1.17;;;2.60;63.70;;;;;;4930666;28;114424;-83
2023/12/23 00:05:36;;;;;;;4.38;1.23;;;2.60;63.70;;;;;;4926316;28;115441;-83
2023/12/23 00:08:06;;;;;;;2.50;1.00;;;2.60;63.70;;;;;;4958524;28;114610;-83
2023/12/23 00:10:34;;;;;;;3.35;1.35;;;2.60;63.70;;;;;;4932396;28;114233;-82
2023/12/23 00:13:01;;;;;;;2.70;1.20;;;2.60;63.70;;;;;;4935415;28;114374;-83
2023/12/23 00:15:28;;;;;;;2.85;1.20;;;2.60;63.80;;;;;;4946369;28;115237;-83
2023/12/23 00:17:56;;;;;;;1.73;1.00;;;2.60;63.70;;;;;;4957210;28;115743;-83
2023/12/23 00:20:24;;;;;;;2.65;1.30;;;2.60;63.70;;;;;;4960324;28;114478;-84
2023/12/23 00:22:51;;;;;;;2.10;1.00;;;2.60;63.70;;;;;;4957121;28;114586;-83
2023/12/23 00:25:19;;;;;;;4.22;1.45;;;2.60;63.80;;;;;;4928438;28;115570;-82
2023/12/23 00:27:47;;;;;;;3.00;1.13;;;2.50;63.90;;;;;;4941803;28;114842;-83
2023/12/23 00:30:15;;;;;;;2.20;1.08;;;2.50;64.10;;;;;;4954388;28;114691;-83
2023/12/23 00:32:44;;;;;;;2.10;1.02;;;2.60;64.20;;;;;;4947834;28;114416;-83
2023/12/23 00:35:12;;;;;;;4.63;1.40;;;2.50;64.30;;;;;;4949066;28;115053;-83
2023/12/23 00:37:40;;;;;;;2.50;1.20;;;2.50;64.40;;;;;;4938062;28;114869;-84
2023/12/23 00:40:08;;;;;;;2.70;0.85;;;2.50;64.50;;;;;;4953774;28;114655;-84
2023/12/23 00:42:37;;;;;;;2.20;1.20;;;2.50;64.50;;;;;;4945350;28;114685;-83
2023/12/23 00:45:05;;;;;;;2.95;1.48;;;2.50;64.50;;;;;;4945130;28;115111;-84
2023/12/23 00:47:33;;;;;;;2.17;1.20;;;2.50;64.60;;;;;;4944744;28;114766;-83
2023/12/23 00:50:05;;;;;;;2.50;1.30;;;2.40;64.70;;;;;;4945485;28;114515;-84
2023/12/23 00:52:34;;;;;;;3.03;1.48;;;2.40;64.80;;;;;;4915134;28;114391;-84
2023/12/23 00:55:02;;;;;;;2.42;1.33;;;2.40;64.90;;;;;;4934669;28;115251;-83
2023/12/23 00:57:30;;;;;;;3.05;1.20;;;2.40;64.90;;;;;;4945726;28;116636;-84
2023/12/23 00:59:57;;;;;;;2.00;0.95;;;2.40;64.90;;;;;;4946915;28;114202;-83
2023/12/23 01:02:25;;;;;;;2.65;1.50;;;2.40;65.00;;;;;;4960066;28;114472;-83
2023/12/23 01:04:54;;;;;;;3.17;1.40;;;2.40;65.00;;;;;;4944332;28;117692;-83
2023/12/23 01:07:22;;;;;;;2.90;1.30;;;2.40;65.00;;;;;;4942771;28;117132;-83
2023/12/23 01:09:49;;;;;;;2.78;1.02;;;2.40;65.10;;;;;;4927435;28;114429;-83
2023/12/23 01:12:20;;;;;;;2.47;1.08;;;2.40;65.10;;;;;;4942894;28;114180;-82
2023/12/23 01:14:48;;;;;;;1.55;1.02;;;2.50;65.10;;;;;;4936163;28;116902;-83
2023/12/23 01:17:15;;;;;;;1.90;1.08;;;2.50;65.00;;;;;;4941473;28;115066;-82
2023/12/23 01:19:43;;;;;;;2.38;0.88;;;2.50;65.00;;;;;;4943883;28;114629;-82
2023/12/23 01:22:10;;;;;;;2.40;0.90;;;2.50;64.90;;;;;;4948870;28;115484;-83
2023/12/23 01:24:38;;;;;;;1.08;0.70;;;2.50;64.80;;;;;;4956999;28;115496;-83
2023/12/23 01:27:05;;;;;;;1.95;0.95;;;2.60;64.70;;;;;;4952779;28;116075;-83
2023/12/23 01:29:35;;;;;;;2.08;0.93;;;2.60;64.70;;;;;;4965376;28;114090;-83
2023/12/23 01:32:03;;;;;;;2.08;0.95;;;2.50;64.70;;;;;;4964771;28;114412;-84
2023/12/23 01:34:31;;;;;;;2.28;1.00;;;2.50;64.70;;;;;;4943748;28;115224;-84
2023/12/23 01:36:59;;;;;;;2.00;0.90;;;2.50;64.70;;;;;;4927091;28;115184;-84
2023/12/23 01:39:29;;;;;;;1.25;0.70;;;2.40;64.70;;;;;;4963865;28;114378;-83
2023/12/23 01:41:57;;;;;;;2.63;1.02;;;2.40;64.80;;;;;;4959251;28;114522;-83
2023/12/23 01:44:24;;;;;;;1.20;0.70;;;2.40;65.00;;;;;;4928772;28;114648;-83
2023/12/23 01:46:52;;;;;;;1.75;0.93;;;2.30;65.10;;;;;;4929971;28;115043;-83
2023/12/23 01:49:20;;;;;;;1.35;0.77;;;2.30;65.30;;;;;;4962522;28;114520;-83
2023/12/23 01:51:48;;;;;;;1.08;0.68;;;2.30;65.50;;;;;;4964138;28;114343;-83
2023/12/23 01:54:15;;;;;;;2.35;0.85;;;2.20;65.60;;;;;;4961964;28;118510;-83
2023/12/23 01:56:42;;;;;;;1.55;0.70;;;2.20;65.80;;;;;;4936870;28;114594;-83
2023/12/23 01:59:10;;;;;;;1.98;0.90;;;2.10;65.90;;;;;;4965088;28;114436;-83
2023/12/23 02:01:37;;;;;;;2.30;0.70;;;1.90;66.20;;;;;;4934859;28;114818;-82
2023/12/23 02:04:05;;;;;;;1.63;0.63;;;1.80;66.40;;;;;;4929897;28;115226;-82
2023/12/23 02:06:32;;;;;;;1.67;0.80;;;1.70;66.50;;;;;;4947672;28;114651;-82
2023/12/23 02:09:03;;;;;;;1.00;0.60;;;1.60;66.80;;;;;;4946253;28;114527;-82
2023/12/23 02:11:57;;;;;;;1.08;0.63;;;1.60;67.00;;;;;;4936917;28;114505;-82
2023/12/23 02:14:47;;;;;;;2.40;0.70;;;1.50;67.40;;;;;;4943242;28;115597;-81
2023/12/23 02:17:14;;;;;;;2.65;0.60;;;1.40;67.50;;;;;;4946358;28;114845;-82
2023/12/23 02:19:43;;;;;;;0.90;0.50;;;1.30;67.50;;;;;;4954875;28;114664;-84
2023/12/23 02:22:11;;;;;;;1.25;0.68;;;1.30;67.60;;;;;;4938284;28;114430;-80
2023/12/23 02:24:39;;;;;;;1.88;0.85;;;1.30;67.90;;;;;;4961490;28;115590;-83
2023/12/23 02:27:11;;;;;;;1.13;0.50;;;1.30;67.90;;;;;;4941967;28;116498;-83
2023/12/23 02:29:39;;;;;;;2.95;0.57;;;1.40;68.10;;;;;;4947969;28;114317;-83
2023/12/23 02:32:08;;;;;;;0.70;0.40;;;1.40;68.00;;;;;;4947822;28;114641;-82
2023/12/23 02:34:35;;;;;;;1.23;0.52;;;1.30;68.10;;;;;;4944702;28;115180;-81
2023/12/23 02:37:03;;;;;;;0.70;0.38;;;1.30;68.10;;;;;;4945808;28;115106;-83
2023/12/23 02:39:34;;;;;;;1.90;0.90;;;1.20;68.30;;;;;;4946422;28;114370;-81
2023/12/23 02:42:05;;;;;;;1.40;0.70;;;1.20;68.50;;;;;;4948129;28;114410;-80
2023/12/23 02:44:33;;;;;;;1.65;0.85;;;1.20;68.50;;;;;;4929567;28;115185;-81
2023/12/23 02:47:00;;;;;;;1.65;0.50;;;1.20;68.40;;;;;;4930602;28;115767;-81
2023/12/23 02:49:27;;;;;;;0.85;0.45;;;1.10;68.40;;;;;;4948061;28;114655;-81
2023/12/23 02:51:55;;;;;;;0.30;0.30;;;1.10;68.50;;;;;;4960265;28;114409;-82
2023/12/23 02:54:22;;;;;;;1.20;0.40;;;1.10;68.50;;;;;;4944247;28;118022;-82
2023/12/23 02:56:50;;;;;;;1.80;0.50;;;1.00;68.60;;;;;;4932129;28;115144;-82
2023/12/23 02:59:17;;;;;;;2.05;0.50;;;1.00;68.60;;;;;;4935597;28;114593;-83
2023/12/23 03:01:44;;;;;;;1.02;0.40;;;1.00;68.60;;;;;;4930211;28;114289;-84
2023/12/23 03:04:12;;;;;;;2.30;0.40;;;1.00;68.70;;;;;;4931609;28;115115;-82
2023/12/23 03:06:40;;;;;;;0.82;0.30;;;1.00;68.60;;;;;;4945762;28;114715;-83
2023/12/23 03:09:07;;;;;;;0.82;0.40;;;1.00;68.60;;;;;;4944751;28;114481;-83
2023/12/23 03:11:36;;;;;;;0.35;0.25;;;1.10;68.60;;;;;;4945698;28;114410;-82
2023/12/23 03:14:04;;;;;;;1.20;0.40;;;1.10;68.60;;;;;;4939662;28;114076;-83
2023/12/23 03:16:35;;;;;;;1.40;0.57;;;1.10;68.70;;;;;;4946890;28;115179;-83
2023/12/23 03:19:08;;;;;;;3.22;0.73;;;1.10;68.50;;;;;;4947044;28;114742;-82
2023/12/23 03:21:43;;;;;;;1.88;0.70;;;1.10;68.50;;;;;;4931895;28;114334;-82
2023/12/23 03:24:10;;;;;;;1.73;0.85;;;1.10;68.40;;;;;;4958896;28;115248;-82
2023/12/23 03:26:40;;;;;;;0.90;0.50;;;1.10;68.30;;;;;;4941670;28;117147;-82
2023/12/23 03:29:08;;;;;;;1.58;0.80;;;1.10;68.30;;;;;;4969984;28;114316;-82
2023/12/23 03:31:35;;;;;;;1.98;0.60;;;1.10;68.40;;;;;;4929393;28;114317;-82
2023/12/23 03:34:02;;;;;;;1.00;0.50;;;1.10;68.30;;;;;;4926931;28;115231;-82
2023/12/23 03:36:30;;;;;;;1.05;0.40;;;1.10;68.10;;;;;;4944675;28;114762;-83
2023/12/23 03:38:57;;;;;;;1.75;0.45;;;1.10;68.00;;;;;;4929160;28;114696;-83
2023/12/23 03:41:25;;;;;;;1.63;0.50;;;1.10;68.00;;;;;;4928141;28;114479;-83
2023/12/23 03:43:52;;;;;;;1.77;0.50;;;1.20;67.80;;;;;;4958809;28;114999;-82
2023/12/23 03:46:20;;;;;;;1.92;0.60;;;1.10;67.70;;;;;;4942631;28;115076;-82
2023/12/23 03:48:48;;;;;;;1.75;0.40;;;1.10;67.80;;;;;;4959969;28;114432;-82
2023/12/23 03:51:15;;;;;;;1.23;0.50;;;1.10;67.70;;;;;;4929857;28;114663;-83
2023/12/23 03:53:42;;;;;;;1.75;0.50;;;1.10;67.50;;;;;;4962137;28;116359;-83
2023/12/23 03:56:10;;;;;;;1.73;0.40;;;1.10;67.50;;;;;;4945539;28;114702;-83
2023/12/23 03:58:37;;;;;;;0.93;0.50;;;1.10;67.40;;;;;;4959031;28;115029;-84
2023/12/23 04:01:05;;;;;;;1.33;0.40;;;1.10;67.30;;;;;;4949316;28;114566;-84
2023/12/23 04:03:33;;;;;;;1.50;0.45;;;1.10;67.40;;;;;;4958286;28;116340;-84
2023/12/23 04:06:02;;;;;;;1.08;0.50;;;1.10;67.40;;;;;;4948106;28;115422;-85
2023/12/23 04:08:29;;;;;;;1.65;0.55;;;1.10;67.30;;;;;;4946141;28;114444;-83
2023/12/23 04:10:58;;;;;;;2.08;0.40;;;1.10;67.30;;;;;;4942757;28;114442;-82
2023/12/23 04:13:29;;;;;;;0.70;0.40;;;1.20;67.20;;;;;;4941743;28;115090;-82
2023/12/23 04:15:57;;;;;;;1.88;0.45;;;1.20;67.10;;;;;;4928550;28;114671;-84
2023/12/23 04:18:24;;;;;;;1.67;0.30;;;1.20;67.20;;;;;;4937204;28;114541;-84
2023/12/23 04:20:51;;;;;;;0.52;0.40;;;1.20;67.00;;;;;;4919120;28;114814;-84
2023/12/23 04:23:19;;;;;;;1.83;0.52;;;1.20;67.10;;;;;;4942234;28;115206;-83
2023/12/23 04:25:46;;;;;;;2.25;0.57;;;1.20;67.10;;;;;;4925694;28;116102;-83
2023/12/23 04:28:15;;;;;;;3.03;0.40;;;1.20;67.10;;;;;;4944908;28;114486;-84
2023/12/23 04:30:43;;;;;;;1.33;0.50;;;1.20;67.20;;;;;;4959880;28;114434;-83
2023/12/23 04:33:10;;;;;;;2.80;0.68;;;1.20;67.20;;;;;;4945406;28;115226;-81
2023/12/23 04:35:38;;;;;;;2.00;0.60;;;1.20;67.30;;;;;;4944767;28;116220;-82
2023/12/23 04:38:06;;;;;;;2.35;0.60;;;1.20;67.30;;;;;;4945135;28;114477;-82
2023/12/23 04:40:34;;;;;;;1.75;0.57;;;1.20;67.30;;;;;;4955023;28;117190;-81
2023/12/23 04:43:02;;;;;;;1.60;0.70;;;1.20;67.40;;;;;;4975940;28;115605;-81
2023/12/23 04:45:30;;;;;;;2.78;0.63;;;1.20;67.40;;;;;;4945053;28;114807;-83
2023/12/23 04:47:57;;;;;;;2.75;0.80;;;1.20;67.30;;;;;;4947061;28;114514;-81
2023/12/23 04:50:25;;;;;;;4.72;1.20;;;1.20;67.20;;;;;;4957439;28;114576;-82
2023/12/23 04:52:53;;;;;;;2.70;1.30;;;1.20;67.30;;;;;;4936892;28;115100;-81
2023/12/23 04:55:24;;;;;;;3.10;0.75;;;1.10;67.40;;;;;;4947455;28;114620;-81
2023/12/23 04:57:52;;;;;;;2.47;1.00;;;1.10;67.80;;;;;;4934700;28;114225;-82
2023/12/23 05:00:19;;;;;;;2.10;0.82;;;1.00;67.90;;;;;;4953493;28;114903;-82
2023/12/23 05:02:47;;;;;;;3.38;1.05;;;1.00;68.00;;;;;;4930541;28;115020;-82
2023/12/23 05:05:14;;;;;;;1.10;0.45;;;1.00;68.20;;;;;;4929300;28;114620;-83
2023/12/23 05:07:42;;;;;;;1.20;0.47;;;0.90;68.20;;;;;;4943182;28;114345;-82
2023/12/23 05:10:09;;;;;;;2.50;0.47;;;0.90;68.10;;;;;;4952079;28;114625;-82
2023/12/23 05:12:37;;;;;;;1.45;0.63;;;0.90;68.00;;;;;;4960432;28;115207;-82
2023/12/23 05:15:06;;;;;;;1.27;0.50;;;0.90;68.00;;;;;;4944746;28;114697;-82
2023/12/23 05:17:33;;;;;;;0.50;0.30;;;0.90;68.00;;;;;;4941827;28;115329;-83
2023/12/23 05:20:02;;;;;;;2.05;0.50;;;0.90;68.00;;;;;;4964258;28;114642;-83
2023/12/23 05:22:29;;;;;;;2.55;0.70;;;0.90;67.90;;;;;;4959806;28;115661;-83
2023/12/23 05:24:57;;;;;;;1.92;0.52;;;0.90;67.80;;;;;;4931374;28;115771;-83
2023/12/23 05:27:24;;;;;;;1.10;0.52;;;0.90;67.50;;;;;;4925694;28;114596;-83
2023/12/23 05:29:57;;;;;;;2.60;0.60;;;0.90;67.20;;;;;;4942395;28;114714;-83
2023/12/23 05:32:24;;;;;;;1.27;0.40;;;0.90;67.10;;;;;;4941584;28;115194;-82
2023/12/23 05:34:55;;;;;;;0.52;0.40;;;0.80;67.10;;;;;;4942408;28;114802;-82
2023/12/23 05:37:22;;;;;;;2.67;1.15;;;0.80;67.00;;;;;;4929137;28;114103;-83
2023/12/23 05:39:50;;;;;;;0.30;0.30;;;0.90;67.00;;;;;;4926321;28;114484;-83
2023/12/23 05:42:18;;;;;;;0.68;0.60;;;0.90;66.70;;;;;;4944894;28;115310;-83
2023/12/23 05:44:45;;;;;;;1.02;0.52;;;0.90;66.50;;;;;;4913014;28;114461;-83
2023/12/23 05:47:13;;;;;;;1.15;0.40;;;0.80;66.20;;;;;;4946850;28;114588;-82
2023/12/23 05:49:40;;;;;;;0.80;0.40;;;0.70;66.10;;;;;;4945713;28;114215;-82
2023/12/23 05:52:08;;;;;;;5.47;0.57;;;0.70;66.10;;;;;;4945466;28;115174;-82
2023/12/23 05:54:35;;;;;;;1.55;0.60;;;0.70;66.00;;;;;;4944735;28;116948;-82
2023/12/23 05:57:02;;;;;;;3.17;0.60;;;0.70;65.90;;;;;;4946639;28;114332;-82
2023/12/23 05:59:30;;;;;;;2.20;0.60;;;0.70;65.80;;;;;;4946513;28;114745;-83
2023/12/23 06:01:57;;;;;;;1.52;0.70;;;0.70;65.70;;;;;;4928065;28;118729;-82
2023/12/23 06:04:25;;;;;;;1.58;0.60;;;0.60;65.60;;;;;;4944351;28;114917;-83
2023/12/23 06:06:52;;;;;;;2.45;0.82;;;0.60;65.50;;;;;;4946583;28;114369;-82
2023/12/23 06:09:19;;;;;;;2.10;0.90;;;0.60;65.60;;;;;;4928889;28;114598;-83
2023/12/23 06:11:48;;;;;;;5.15;1.15;;;0.70;65.80;;;;;;4945612;28;115063;-84
2023/12/23 06:14:15;;;;;;;3.00;1.10;;;0.70;65.90;;;;;;4945456;28;115198;-84
2023/12/23 06:16:42;;;;;;;4.43;1.17;;;0.70;66.00;;;;;;4945745;28;114526;-83
2023/12/23 06:19:10;;;;;;;3.78;1.10;;;0.80;66.00;;;;;;4944915;28;114763;-84
2023/12/23 06:21:37;;;;;;;3.35;1.00;;;0.90;65.90;;;;;;4945257;28;115200;-84
2023/12/23 06:24:05;;;;;;;3.35;1.00;;;0.90;65.80;;;;;;4946816;28;114983;-83
2023/12/23 06:26:37;;;;;;;4.07;1.52;;;0.90;65.90;;;;;;4947465;28;114449;-83
2023/12/23 06:29:04;;;;;;;3.13;0.80;;;0.90;66.00;;;;;;4946109;28;114833;-84
2023/12/23 06:31:36;;;;;;;2.95;0.75;;;0.90;66.10;;;;;;4940626;28;115799;-83
2023/12/23 06:34:04;;;;;;;1.52;0.70;;;0.90;66.10;;;;;;4929418;28;114873;-84
2023/12/23 06:36:31;;;;;;;1.70;0.65;;;0.90;65.90;;;;;;4977251;28;117167;-83
2023/12/23 06:38:58;;;;;;;1.17;0.50;;;0.90;65.90;;;;;;4930844;28;115822;-83
2023/12/23 06:42:00;;;;;;;2.67;0.70;;;0.80;65.60;;;;;;4941830;28;115326;-84
2023/12/23 06:44:27;;;;;;;3.30;0.90;;;0.80;65.70;;;;;;4930989;28;114862;-83
2023/12/23 06:46:59;;;;;;;4.95;1.33;;;0.70;65.60;;;;;;4944923;28;114394;-82
2023/12/23 06:49:27;;;;;;;3.45;1.25;;;0.70;65.50;;;;;;4952125;28;116560;-81
2023/12/23 06:51:55;;;;;;;2.55;0.80;;;0.70;65.30;;;;;;4942001;28;115167;-82
2023/12/23 06:54:28;;;;;;;2.72;0.77;;;0.70;65.00;;;;;;4933245;28;114642;-82
2023/12/23 06:56:55;;;;;;;2.97;0.82;;;0.70;64.70;;;;;;4929735;28;114674;-82
2023/12/23 06:59:39;;;;;;;1.60;0.70;;;0.60;64.70;;;;;;4926706;28;117290;-84
2023/12/23 07:02:06;;;;;;;1.10;0.55;;;0.60;64.60;;;;;;4930032;28;115142;-82
2023/12/23 07:04:33;;;;;;;2.25;0.60;;;0.60;64.80;;;;;;4928541;28;115821;-83
2023/12/23 07:07:01;;;;;;;3.92;0.90;;;0.60;64.90;;;;;;4946096;28;114368;-83
2023/12/23 07:09:28;;;;;;;4.40;0.70;;;0.60;65.00;;;;;;4937784;28;114616;-83
2023/12/23 07:11:55;;;;;;;2.38;0.88;;;0.70;65.10;;;;;;4945380;28;116179;-83
2023/12/23 07:14:23;;;;;;;6.97;1.27;;;0.70;65.00;;;;;;4946962;28;118201;-83
2023/12/23 07:16:51;;;;;;;4.95;1.13;;;0.80;64.90;;;;;;4948839;28;114303;-82
2023/12/23 07:19:18;;;;;;;3.22;1.20;;;0.80;65.00;;;;;;4943135;28;114509;-81
2023/12/23 07:21:48;;;;;;;2.15;0.75;;;0.80;64.90;;;;;;4937453;28;115165;-82
2023/12/23 07:24:15;;;;;;;2.13;0.80;;;0.80;64.80;;;;;;4945998;28;114875;-83
2023/12/23 07:26:42;;;;;;;1.73;1.00;;;0.90;64.70;;;;;;4944169;28;115882;-81
2023/12/23 07:29:10;;;;;;;3.35;1.17;;;0.90;64.60;;;;;;4936649;28;114879;-81
2023/12/23 07:31:37;;;;;;;4.80;1.15;;;1.00;64.60;;;;;;4947290;28;115146;-82
2023/12/23 07:34:04;;;;;;;4.30;1.48;;;1.00;64.80;;;;;;4960379;28;114710;-82
2023/12/23 07:36:32;;;;;;;5.13;1.40;;;1.10;64.70;;;;;;4931208;28;114368;-83
2023/12/23 07:38:59;;;;;;;3.30;1.17;;;1.20;64.70;;;;;;4935709;28;114800;-85
2023/12/23 07:41:27;;;;;;;3.88;1.35;;;1.40;64.80;;;;;;4936680;28;115088;-84
2023/12/23 07:43:55;;;;;;;2.05;1.00;;;1.50;65.00;;;;;;4941654;28;117454;-83
2023/12/23 07:46:24;;;;;;;6.65;1.58;;;1.60;64.80;;;;;;4908936;28;114960;-84
2023/12/23 07:48:52;;;;;;;3.40;1.20;;;1.60;64.80;;;;;;4929891;28;114376;-83
2023/12/23 07:51:21;;;;;;;4.50;1.27;;;1.70;64.40;;;;;;4956068;28;115550;-84
2023/12/23 07:53:49;;;;;;;4.70;1.17;;;1.70;64.20;;;;;;4942600;28;115230;-84
2023/12/23 07:56:17;;;;;;;3.25;1.05;;;1.80;64.10;;;;;;4961851;28;114885;-84
2023/12/23 07:58:44;;;;;;;2.55;1.20;;;1.70;63.80;;;;;;4951748;28;114680;-81
2023/12/23 08:01:11;;;;;;;2.60;1.25;;;1.70;63.80;;;;;;4934641;28;116393;-83
2023/12/23 08:03:39;;;;;;;3.55;1.35;;;1.70;63.90;;;;;;4948060;28;115084;-83
2023/12/23 08:06:06;;;;;;;3.55;1.20;;;1.80;64.00;;;;;;4953155;28;114886;-83
2023/12/23 08:08:35;;;;;;;3.33;1.23;;;1.80;63.70;;;;;;4948278;28;114561;-83
2023/12/23 08:11:05;;;;;;;5.50;1.65;;;1.80;63.90;;;;;;4933508;28;115062;-83
2023/12/23 08:13:32;;;;;;;4.25;1.52;;;1.90;63.60;;;;;;4934515;28;114673;-82
2023/12/23 08:16:00;;;;;;;32.45;9.93;;;1.90;63.50;;;;;;4953447;28;115149;-83
2023/12/23 08:18:28;;;;;;;17.67;5.82;;;2.00;63.40;;;;;;4932162;28;114462;-84
2023/12/23 08:20:56;;;;;;;19.52;7.22;;;2.00;63.70;;;;;;4949141;28;115256;-84
2023/12/23 08:23:25;;;;;;;24.55;8.63;;;2.00;63.40;;;;;;4938950;28;115982;-83
2023/12/23 08:25:53;;;;;;;15.05;6.50;;;2.10;63.40;;;;;;4943671;28;114279;-83
2023/12/23 08:28:20;;;;;;;10.30;4.60;;;2.10;63.20;;;;;;4937736;28;114554;-83
2023/12/23 08:30:48;;;;;;;9.13;4.45;;;2.10;63.10;;;;;;4936142;28;115080;-84
2023/12/23 08:33:15;;;;;;;7.85;3.63;;;2.00;63.00;;;;;;4928313;28;114643;-84
2023/12/23 08:35:43;;;;;;;8.07;3.28;;;2.10;62.90;;;;;;4928327;28;114341;-83
2023/12/23 08:38:11;;;;;;;7.07;3.47;;;2.10;63.10;;;;;;4941232;28;114367;-82
2023/12/23 08:40:41;;;;;;;6.47;3.10;;;2.10;62.90;;;;;;4964562;28;116043;-82
2023/12/23 08:43:09;;;;;;;6.32;3.10;;;2.10;62.80;;;;;;4935986;28;114513;-83
2023/12/23 08:45:37;;;;;;;7.60;3.83;;;2.10;62.60;;;;;;4943362;28;114511;-83
2023/12/23 08:48:05;;;;;;;5.55;2.92;;;2.10;62.80;;;;;;4961730;28;114339;-83
2023/12/23 08:50:32;;;;;;;9.88;4.30;;;2.10;62.90;;;;;;4941158;28;115286;-82
2023/12/23 08:53:02;;;;;;;9.48;4.55;;;2.10;62.70;;;;;;4949219;28;114540;-83
2023/12/23 08:55:30;;;;;;;9.55;3.75;;;2.10;62.70;;;;;;4948661;28;114864;-84
2023/12/23 08:57:57;;;;;;;7.55;3.08;;;2.10;62.60;;;;;;4947308;28;114477;-82
2023/12/23 09:00:24;;;;;;;10.35;4.10;;;2.10;62.60;;;;;;4957232;28;117325;-82
2023/12/23 09:02:52;;;;;;;10.60;4.60;;;2.10;62.70;;;;;;4925165;28;114732;-82
2023/12/23 09:05:20;;;;;;;10.02;4.20;;;2.10;62.80;;;;;;4965018;28;114482;-83
2023/12/23 09:07:50;;;;;;;15.88;5.88;;;2.10;62.60;;;;;;4952192;28;114231;-83
2023/12/23 09:10:17;;;;;;;9.32;4.68;;;2.10;62.60;;;;;;4951778;28;115115;-83
2023/12/23 09:12:45;;;;;;;12.63;4.93;;;2.10;62.60;;;;;;4962850;28;114826;-83
2023/12/23 09:15:12;;;;;;;11.32;4.95;;;2.10;62.70;;;;;;4978329;28;114625;-83
2023/12/23 09:17:39;;;;;;;9.00;4.22;;;2.10;62.60;;;;;;4947399;28;114433;-83
2023/12/23 09:20:10;;;;;;;18.65;7.05;;;2.10;62.50;;;;;;4942537;28;117010;-83
2023/12/23 09:22:40;;;;;;;19.27;7.22;;;2.10;62.30;;;;;;4942676;28;114650;-82
2023/12/23 09:25:07;;;;;;;13.23;5.32;;;2.20;62.00;;;;;;4977452;28;114420;-83
2023/12/23 09:27:35;;;;;;;8.65;3.95;;;2.20;62.10;;;;;;4947096;28;114557;-81
2023/12/23 09:30:04;;;;;;;6.93;3.25;;;2.20;61.80;;;;;;4944297;28;115176;-83
2023/12/23 09:32:31;;;;;;;6.72;2.78;;;2.20;61.50;;;;;;4928534;28;116931;-82
2023/12/23 09:34:59;;;;;;;8.68;4.28;;;2.20;61.00;;;;;;4942724;28;114528;-83
2023/12/23 09:37:32;;;;;;;7.88;3.05;;;2.20;61.00;;;;;;4926953;28;114398;-82
2023/12/23 09:40:01;;;;;;;5.75;2.67;;;2.20;60.70;;;;;;4934007;28;115486;-82
2023/12/23 09:42:28;;;;;;;6.10;2.22;;;2.20;60.80;;;;;;4944348;28;114538;-81
2023/12/23 09:44:56;;;;;;;5.30;2.50;;;2.20;60.60;;;;;;4938109;28;114414;-83
2023/12/23 09:47:24;;;;;;;6.70;2.38;;;2.20;60.40;;;;;;4939327;28;114896;-82
2023/12/23 09:49:52;;;;;;;5.47;2.50;;;2.20;60.30;;;;;;4969015;28;115017;-82
2023/12/23 09:52:19;;;;;;;7.82;3.05;;;2.20;60.20;;;;;;4970266;28;115419;-83
2023/12/23 09:54:53;;;;;;;5.57;2.85;;;2.20;60.10;;;;;;4931348;28;114671;-83
2023/12/23 09:57:20;;;;;;;6.05;2.30;;;2.20;60.10;;;;;;4926786;28;114447;-82
2023/12/23 09:59:51;;;;;;;4.78;2.22;;;2.30;60.30;;;;;;4945637;28;115082;-82
2023/12/23 10:02:18;;;;;;;7.05;3.03;;;2.30;60.20;;;;;;4979794;28;114893;-83
2023/12/23 10:04:51;;;;;;;5.78;2.33;;;2.40;59.90;;;;;;4956651;28;115413;-82
2023/12/23 10:07:18;;;;;;;7.05;3.33;;;2.40;59.60;;;;;;4967890;28;114631;-82
2023/12/23 10:09:49;;;;;;;6.40;2.75;;;2.30;59.70;;;;;;4968072;28;116187;-83
2023/12/23 10:12:20;;;;;;;7.85;2.63;;;2.40;59.30;;;;;;4967863;28;114537;-84
2023/12/23 10:14:48;;;;;;;7.63;2.95;;;2.40;59.40;;;;;;4935338;28;114389;-81
2023/12/23 10:17:17;;;;;;;6.97;2.90;;;2.30;59.50;;;;;;4969217;28;114231;-81
2023/12/23 10:19:47;;;;;;;8.27;3.25;;;2.40;59.30;;;;;;4966546;28;115568;-83
2023/12/23 10:22:17;;;;;;;8.57;3.85;;;2.40;59.20;;;;;;4967742;28;115270;-84
2023/12/23 10:24:45;;;;;;;10.18;3.20;;;2.40;59.30;;;;;;4951598;28;114210;-83
2023/12/23 10:27:14;;;;;;;8.50;3.25;;;2.40;59.20;;;;;;4969000;28;114310;-83
2023/12/23 10:29:41;;;;;;;8.23;2.70;;;2.50;59.30;;;;;;4966690;28;116580;-82
2023/12/23 10:32:09;;;;;;;9.85;3.42;;;2.50;59.40;;;;;;4941968;28;114869;-82
2023/12/23 10:34:44;;;;;;;9.00;3.00;;;2.60;59.40;;;;;;4971663;28;114121;-84
2023/12/23 10:37:16;;;;;;;7.90;3.00;;;2.50;59.20;;;;;;4973803;28;114270;-83
2023/12/23 10:40:13;;;;;;;5.15;2.30;;;2.50;59.40;;;;;;4952648;28;115073;-82
2023/12/23 10:42:42;;;;;;;7.45;2.63;;;2.50;59.20;;;;;;4936840;28;117971;-81
2023/12/23 10:45:10;;;;;;;9.93;3.42;;;2.50;59.50;;;;;;4969668;28;114295;-82
2023/12/23 10:47:37;;;;;;;8.95;3.15;;;2.50;59.40;;;;;;4968047;28;114353;-82
2023/12/23 10:50:07;;;;;;;9.38;3.17;;;2.50;59.30;;;;;;4948001;28;115325;-83
2023/12/23 10:52:53;;;;;;;8.60;2.58;;;2.50;59.40;;;;;;4945743;28;116087;-82
2023/12/23 10:55:39;;;;;;;5.20;2.30;;;2.60;59.50;;;;;;4936661;28;114442;-82
2023/12/23 10:58:25;;;;;;;6.30;2.38;;;2.60;59.70;;;;;;4932652;28;114599;-81
2023/12/23 11:01:13;;;;;;;6.78;2.90;;;2.60;59.70;;;;;;4955432;28;114941;-82
2023/12/23 11:04:02;;;;;;;8.27;2.33;;;2.60;59.70;;;;;;4968607;28;114338;-81
2023/12/23 11:06:48;;;;;;;7.20;2.08;;;2.70;59.60;;;;;;4947102;28;114706;-81
2023/12/23 11:09:35;;;;;;;7.13;2.22;;;2.60;59.40;;;;;;4950387;28;114825;-83
2023/12/23 11:12:21;;;;;;;9.50;2.30;;;2.70;59.00;;;;;;4939453;28;114745;-83
2023/12/23 11:15:09;;;;;;;5.28;1.67;;;2.70;59.10;;;;;;4941528;28;114654;-82
2023/12/23 11:17:58;;;;;;;7.45;2.10;;;2.60;59.10;;;;;;4965696;28;114537;-82
2023/12/23 11:20:49;;;;;;;6.70;2.25;;;2.60;59.00;;;;;;4940627;28;114464;-83
2023/12/23 11:23:37;;;;;;;6.90;2.40;;;2.60;59.00;;;;;;4934417;28;114743;-84
2023/12/23 11:26:05;;;;;;;6.00;2.22;;;2.60;59.20;;;;;;4949523;28;114600;-84
2023/12/23 11:28:36;;;;;;;7.80;2.20;;;2.60;59.20;;;;;;4912650;28;114550;-81
2023/12/23 11:31:03;;;;;;;7.93;3.03;;;2.60;58.90;;;;;;4929408;28;114460;-81
2023/12/23 11:33:36;;;;;;;8.38;2.42;;;2.70;59.10;;;;;;4952589;28;115669;-81
2023/12/23 11:36:06;;;;;;;6.95;2.30;;;2.60;59.00;;;;;;4946812;28;115293;-81
2023/12/23 11:38:47;;;;;;;5.40;2.00;;;2.70;59.10;;;;;;4962599;28;114629;-82
2023/12/23 11:41:15;;;;;;;9.15;2.38;;;2.70;59.00;;;;;;4941416;28;114351;-81
2023/12/23 11:43:43;;;;;;;9.00;2.70;;;2.70;59.00;;;;;;4957139;28;115656;-83
2023/12/23 11:46:14;;;;;;;7.53;2.20;;;2.70;59.20;;;;;;4939090;28;115250;-81
2023/12/23 11:48:41;;;;;;;5.68;2.10;;;2.70;59.30;;;;;;4943089;28;115254;-82
2023/12/23 11:51:12;;;;;;;4.93;2.10;;;2.70;59.40;;;;;;4934722;28;114804;-82
2023/12/23 11:53:40;;;;;;;6.35;2.03;;;2.70;59.60;;;;;;4948583;28;115039;-83
2023/12/23 11:56:08;;;;;;;5.85;2.05;;;2.70;59.90;;;;;;4932960;28;114683;-82
2023/12/23 11:58:36;;;;;;;7.47;2.55;;;2.70;60.00;;;;;;4946818;28;114427;-81
2023/12/23 12:01:03;;;;;;;6.82;2.17;;;2.70;60.10;;;;;;4960044;28;116358;-82
2023/12/23 12:03:30;;;;;;;7.18;2.47;;;2.70;60.20;;;;;;4940327;28;115555;-82
2023/12/23 12:05:58;;;;;;;7.65;2.60;;;2.60;60.30;;;;;;4963849;28;115145;-83
2023/12/23 12:08:36;;;;;;;6.78;3.15;;;2.60;60.40;;;;;;4931852;28;114601;-82
2023/12/23 12:11:03;;;;;;;7.43;2.85;;;2.60;60.70;;;;;;4955817;28;114833;-82
2023/12/23 12:13:31;;;;;;;11.30;2.80;;;2.60;60.60;;;;;;4951696;28;115124;-83
2023/12/23 12:15:58;;;;;;;11.40;3.88;;;2.50;60.80;;;;;;4971584;28;114914;-83
2023/12/23 12:18:26;;;;;;;8.80;3.17;;;2.50;61.00;;;;;;4959705;28;115031;-84
2023/12/23 12:20:57;;;;;;;9.60;2.80;;;2.50;61.20;;;;;;4921537;28;114723;-83
2023/12/23 12:23:25;;;;;;;9.23;2.60;;;2.40;61.30;;;;;;4938867;28;115327;-84
2023/12/23 12:25:56;;;;;;;6.88;3.50;;;2.40;61.40;;;;;;4948531;28;114439;-82
2023/12/23 12:28:30;;;;;;;8.45;2.70;;;2.30;61.80;;;;;;4928799;28;114383;-81
2023/12/23 12:31:10;;;;;;;6.57;3.17;;;2.30;62.00;;;;;;4928778;28;114780;-83
2023/12/23 12:33:41;;;;;;;10.20;3.42;;;2.30;62.50;;;;;;4931323;28;115178;-84
2023/12/23 12:36:13;;;;;;;5.70;2.55;;;2.20;62.50;;;;;;4942708;28;115153;-84
2023/12/23 12:38:42;;;;;;;6.35;2.58;;;2.20;62.70;;;;;;4946451;28;114411;-84
2023/12/23 12:41:12;;;;;;;5.65;2.63;;;2.20;63.00;;;;;;4945641;28;114989;-84
2023/12/23 12:43:43;;;;;;;7.25;2.47;;;2.20;63.30;;;;;;4944439;28;115396;-83
2023/12/23 12:46:17;;;;;;;5.43;2.67;;;2.20;63.50;;;;;;4926787;28;114717;-83
2023/12/23 12:48:45;;;;;;;6.85;2.50;;;2.20;63.50;;;;;;4941395;28;114577;-82
2023/12/23 12:51:15;;;;;;;9.45;3.97;;;2.20;63.40;;;;;;4962290;28;114570;-82
2023/12/23 12:53:46;;;;;;;9.90;4.00;;;2.20;63.70;;;;;;4958887;28;115927;-83
2023/12/23 12:56:20;;;;;;;8.45;2.97;;;2.20;63.80;;;;;;4947134;28;115291;-83